createdAt,value
2022-12-31T00:00:15.764Z,0
2022-12-31T00:01:15.998Z,0
2022-12-31T00:02:16.226Z,0
2022-12-31T00:03:16.749Z,0
2022-12-31T00:04:17.300Z,0
2022-12-31T00:05:17.467Z,0
2022-12-31T00:06:17.621Z,0
2022-12-31T00:07:17.774Z,0
2022-12-31T00:08:18.121Z,0
2022-12-31T00:09:18.274Z,0
2022-12-31T00:10:18.427Z,0
2022-12-31T00:11:18.583Z,0
2022-12-31T00:12:18.745Z,0
2022-12-31T00:13:18.903Z,0
2022-12-31T00:14:19.052Z,0
2022-12-31T00:15:19.197Z,0
2022-12-31T00:16:19.429Z,0
2022-12-31T00:17:19.716Z,0
2022-12-31T00:18:19.881Z,0
2022-12-31T00:19:20.047Z,0
2022-12-31T00:20:20.301Z,0
2022-12-31T00:21:20.474Z,0
2022-12-31T00:22:20.662Z,0
2022-12-31T00:23:20.818Z,0
2022-12-31T00:24:21.009Z,0
2022-12-31T00:25:21.202Z,0
2022-12-31T00:26:21.365Z,0
2022-12-31T00:27:21.537Z,0
2022-12-31T00:28:21.690Z,0
2022-12-31T00:29:21.854Z,0
2022-12-31T00:30:22.088Z,0
2022-12-31T00:31:22.331Z,0
2022-12-31T00:32:22.555Z,0
2022-12-31T00:33:22.703Z,0
2022-12-31T00:34:22.852Z,0
2022-12-31T00:35:22.999Z,0
2022-12-31T00:36:23.230Z,0
2022-12-31T00:37:23.379Z,0
2022-12-31T00:38:23.536Z,0
2022-12-31T00:39:23.685Z,0
2022-12-31T00:40:23.847Z,0
2022-12-31T00:41:24.026Z,0
2022-12-31T00:42:24.189Z,0
2022-12-31T00:43:24.357Z,0
2022-12-31T00:44:24.519Z,0
2022-12-31T00:45:24.722Z,0
2022-12-31T00:46:24.920Z,0
2022-12-31T00:47:25.610Z,0
2022-12-31T00:48:25.793Z,0
2022-12-31T00:49:25.941Z,0
2022-12-31T00:50:26.105Z,0
2022-12-31T00:51:26.277Z,0
2022-12-31T00:52:26.456Z,0
2022-12-31T00:53:26.622Z,0
2022-12-31T00:54:26.787Z,0
2022-12-31T00:55:26.935Z,0
2022-12-31T00:56:27.101Z,0
2022-12-31T00:57:27.281Z,0
2022-12-31T00:58:27.436Z,0
2022-12-31T00:59:27.618Z,0
2022-12-31T01:00:27.775Z,0
2022-12-31T01:01:28.047Z,0
2022-12-31T01:02:28.870Z,0
2022-12-31T01:03:29.923Z,0
2022-12-31T01:04:30.309Z,0
2022-12-31T01:05:30.480Z,0
2022-12-31T01:06:30.638Z,0
2022-12-31T01:07:30.813Z,0
2022-12-31T01:08:31.112Z,0
2022-12-31T01:09:31.290Z,0
2022-12-31T01:10:31.445Z,0
2022-12-31T01:11:31.609Z,0
2022-12-31T01:12:31.791Z,0
2022-12-31T01:13:31.951Z,0
2022-12-31T01:14:32.109Z,0
2022-12-31T01:15:32.273Z,0
2022-12-31T01:16:32.538Z,0
2022-12-31T01:17:32.675Z,0
2022-12-31T01:18:32.825Z,0
2022-12-31T01:19:32.977Z,0
2022-12-31T01:20:33.129Z,0
2022-12-31T01:21:33.289Z,0
2022-12-31T01:22:33.449Z,0
2022-12-31T01:23:33.606Z,0
2022-12-31T01:24:33.758Z,0
2022-12-31T01:25:33.916Z,0
2022-12-31T01:26:34.077Z,0
2022-12-31T01:27:34.251Z,0
2022-12-31T01:28:34.398Z,0
2022-12-31T01:29:34.566Z,0
2022-12-31T01:30:34.728Z,0
2022-12-31T01:31:35.227Z,0
2022-12-31T01:32:35.400Z,0
2022-12-31T01:33:35.596Z,0
2022-12-31T01:34:35.778Z,0
2022-12-31T01:35:35.935Z,0
2022-12-31T01:36:36.088Z,0
2022-12-31T01:37:36.255Z,0
2022-12-31T01:38:36.416Z,0
2022-12-31T01:39:36.581Z,0
2022-12-31T01:40:36.743Z,0
2022-12-31T01:41:36.904Z,0
2022-12-31T01:42:37.066Z,0
2022-12-31T01:43:37.223Z,0
2022-12-31T01:44:37.374Z,0
2022-12-31T01:45:37.529Z,0
2022-12-31T01:46:37.705Z,0
2022-12-31T01:47:38.032Z,0
2022-12-31T01:48:38.200Z,0
2022-12-31T01:49:38.347Z,0
2022-12-31T01:50:38.505Z,0
2022-12-31T01:51:38.652Z,0
2022-12-31T01:52:38.805Z,0
2022-12-31T01:53:40.889Z,0
2022-12-31T01:54:41.215Z,0
2022-12-31T01:55:41.379Z,0
2022-12-31T01:56:41.545Z,0
2022-12-31T01:57:41.708Z,0
2022-12-31T01:58:41.858Z,0
2022-12-31T01:59:42.016Z,0
2022-12-31T02:00:42.170Z,0
2022-12-31T02:01:42.371Z,0
2022-12-31T02:02:42.988Z,0
2022-12-31T02:03:43.437Z,0
2022-12-31T02:04:43.598Z,0
2022-12-31T02:05:43.773Z,0
2022-12-31T02:06:43.927Z,0
2022-12-31T02:07:44.103Z,0
2022-12-31T02:08:44.265Z,0
2022-12-31T02:09:44.414Z,0
2022-12-31T02:10:44.562Z,0
2022-12-31T02:11:44.707Z,0
2022-12-31T02:12:44.874Z,0
2022-12-31T02:13:45.071Z,0
2022-12-31T02:14:45.222Z,0
2022-12-31T02:15:45.436Z,0
2022-12-31T02:16:45.788Z,0
2022-12-31T02:17:45.924Z,0
2022-12-31T02:18:46.079Z,0
2022-12-31T02:19:46.250Z,0
2022-12-31T02:20:46.408Z,0
2022-12-31T02:21:46.564Z,0
2022-12-31T02:22:46.835Z,0
2022-12-31T02:23:47.292Z,0
2022-12-31T02:24:47.444Z,0
2022-12-31T02:25:47.609Z,0
2022-12-31T02:26:47.797Z,0
2022-12-31T02:27:47.969Z,0
2022-12-31T02:28:48.127Z,0
2022-12-31T02:29:48.292Z,0
2022-12-31T02:30:48.492Z,0
2022-12-31T02:31:48.972Z,0
2022-12-31T02:32:49.131Z,0
2022-12-31T02:33:49.293Z,0
2022-12-31T02:34:49.448Z,0
2022-12-31T02:35:49.608Z,0
2022-12-31T02:36:49.784Z,0
2022-12-31T02:37:49.934Z,0
2022-12-31T02:38:50.108Z,0
2022-12-31T02:39:50.261Z,0
2022-12-31T02:40:50.432Z,0
2022-12-31T02:41:50.611Z,0
2022-12-31T02:42:55.209Z,0
2022-12-31T02:43:56.114Z,0
2022-12-31T02:44:56.277Z,0
2022-12-31T02:45:56.437Z,0
2022-12-31T02:46:56.612Z,0
2022-12-31T02:47:56.766Z,0
2022-12-31T02:48:56.913Z,0
2022-12-31T02:49:57.065Z,0
2022-12-31T02:50:57.222Z,0
2022-12-31T02:51:57.380Z,0
2022-12-31T02:52:57.525Z,0
2022-12-31T02:53:57.685Z,0
2022-12-31T02:54:57.900Z,0
2022-12-31T02:55:58.065Z,0
2022-12-31T02:56:58.220Z,0
2022-12-31T02:57:58.379Z,0
2022-12-31T02:58:58.521Z,0
2022-12-31T02:59:58.666Z,0
2022-12-31T03:00:58.912Z,0
2022-12-31T03:01:59.423Z,0
2022-12-31T03:03:00.076Z,0
2022-12-31T03:04:00.254Z,0
2022-12-31T03:05:00.427Z,0
2022-12-31T03:06:00.591Z,0
2022-12-31T03:07:00.747Z,0
2022-12-31T03:08:00.897Z,0
2022-12-31T03:09:01.047Z,0
2022-12-31T03:10:01.205Z,0
2022-12-31T03:11:01.395Z,0
2022-12-31T03:12:01.542Z,0
2022-12-31T03:13:01.699Z,0
2022-12-31T03:14:01.875Z,0
2022-12-31T03:15:02.052Z,0
2022-12-31T03:16:02.261Z,0
2022-12-31T03:17:02.571Z,0
2022-12-31T03:18:02.721Z,0
2022-12-31T03:19:02.919Z,0
2022-12-31T03:20:03.068Z,0
2022-12-31T03:21:03.237Z,0
2022-12-31T03:22:03.426Z,0
2022-12-31T03:23:03.569Z,0
2022-12-31T03:24:03.719Z,0
2022-12-31T03:25:03.864Z,0
2022-12-31T03:26:04.029Z,0
2022-12-31T03:27:04.178Z,0
2022-12-31T03:28:04.336Z,0
2022-12-31T03:29:04.539Z,0
2022-12-31T03:30:04.690Z,0
2022-12-31T03:31:04.905Z,0
2022-12-31T03:32:05.196Z,0
2022-12-31T03:33:05.371Z,0
2022-12-31T03:34:05.517Z,0
2022-12-31T03:35:05.680Z,0
2022-12-31T03:36:06.024Z,0
2022-12-31T03:37:06.205Z,0
2022-12-31T03:38:06.388Z,0
2022-12-31T03:39:06.560Z,0
2022-12-31T03:40:06.735Z,0
2022-12-31T03:41:06.905Z,0
2022-12-31T03:42:07.075Z,0
2022-12-31T03:43:07.230Z,0
2022-12-31T03:44:07.384Z,0
2022-12-31T03:45:07.537Z,0
2022-12-31T03:46:07.719Z,0
2022-12-31T03:47:08.074Z,0
2022-12-31T03:48:08.236Z,0
2022-12-31T03:49:08.403Z,0
2022-12-31T03:50:08.552Z,0
2022-12-31T03:51:08.713Z,0
2022-12-31T03:52:08.876Z,0
2022-12-31T03:53:09.053Z,0
2022-12-31T03:54:09.241Z,0
2022-12-31T03:55:09.389Z,0
2022-12-31T03:56:09.546Z,0
2022-12-31T03:57:09.696Z,0
2022-12-31T03:58:09.862Z,0
2022-12-31T03:59:10.018Z,0
2022-12-31T04:00:10.233Z,0
2022-12-31T04:01:10.523Z,0
2022-12-31T04:02:11.216Z,0
2022-12-31T04:03:11.937Z,0
2022-12-31T04:04:12.377Z,0
2022-12-31T04:05:12.522Z,0
2022-12-31T04:06:12.675Z,0
2022-12-31T04:07:12.837Z,0
2022-12-31T04:08:12.986Z,0
2022-12-31T04:09:13.139Z,0
2022-12-31T04:10:13.288Z,0
2022-12-31T04:11:17.438Z,0
2022-12-31T04:12:21.417Z,0
2022-12-31T04:13:21.579Z,0
2022-12-31T04:14:21.747Z,0
2022-12-31T04:15:21.919Z,0
2022-12-31T04:16:22.165Z,0
2022-12-31T04:17:22.514Z,0
2022-12-31T04:18:22.675Z,0
2022-12-31T04:19:22.828Z,0
2022-12-31T04:20:23.054Z,0
2022-12-31T04:21:23.242Z,0
2022-12-31T04:22:23.399Z,0
2022-12-31T04:23:23.544Z,0
2022-12-31T04:24:23.706Z,0
2022-12-31T04:25:23.884Z,0
2022-12-31T04:26:24.066Z,0
2022-12-31T04:27:24.225Z,0
2022-12-31T04:28:24.379Z,0
2022-12-31T04:29:24.528Z,0
2022-12-31T04:30:24.677Z,0
2022-12-31T04:31:24.870Z,0
2022-12-31T04:32:25.220Z,0
2022-12-31T04:33:25.605Z,0
2022-12-31T04:34:25.768Z,0
2022-12-31T04:35:25.923Z,0
2022-12-31T04:36:26.115Z,0
2022-12-31T04:37:26.274Z,0
2022-12-31T04:38:26.434Z,0
2022-12-31T04:39:26.602Z,0
2022-12-31T04:40:26.757Z,0
2022-12-31T04:41:26.920Z,0
2022-12-31T04:42:27.179Z,0
2022-12-31T04:43:27.333Z,0
2022-12-31T04:44:27.479Z,0
2022-12-31T04:45:27.634Z,0
2022-12-31T04:46:27.797Z,0
2022-12-31T04:47:27.958Z,0
2022-12-31T04:48:28.169Z,0
2022-12-31T04:49:28.323Z,0
2022-12-31T04:50:28.483Z,0
2022-12-31T04:51:28.632Z,0
2022-12-31T04:52:28.783Z,0
2022-12-31T04:53:28.933Z,0
2022-12-31T04:54:29.080Z,0
2022-12-31T04:55:29.241Z,0
2022-12-31T04:56:29.396Z,0
2022-12-31T04:57:29.549Z,0
2022-12-31T04:58:29.707Z,0
2022-12-31T04:59:29.860Z,0
2022-12-31T05:00:30.005Z,0
2022-12-31T05:01:30.227Z,0
2022-12-31T05:02:30.844Z,0
2022-12-31T05:03:31.708Z,0
2022-12-31T05:04:31.890Z,0
2022-12-31T05:05:32.053Z,0
2022-12-31T05:06:32.198Z,0
2022-12-31T05:07:32.350Z,0
2022-12-31T05:08:32.530Z,0
2022-12-31T05:09:32.684Z,0
2022-12-31T05:10:32.843Z,0
2022-12-31T05:11:33.009Z,0
2022-12-31T05:12:33.302Z,0
2022-12-31T05:13:33.903Z,0
2022-12-31T05:14:34.071Z,0
2022-12-31T05:15:34.257Z,0
2022-12-31T05:16:34.476Z,0
2022-12-31T05:17:34.763Z,0
2022-12-31T05:18:34.923Z,0
2022-12-31T05:19:35.084Z,0
2022-12-31T05:20:35.234Z,0
2022-12-31T05:21:35.398Z,0
2022-12-31T05:22:35.604Z,0
2022-12-31T05:23:35.773Z,0
2022-12-31T05:24:35.922Z,0
2022-12-31T05:25:36.406Z,0
2022-12-31T05:26:36.555Z,0
2022-12-31T05:27:36.724Z,0
2022-12-31T05:28:36.876Z,0
2022-12-31T05:29:37.043Z,0
2022-12-31T05:30:37.215Z,0
2022-12-31T05:31:37.556Z,0
2022-12-31T05:32:37.705Z,0
2022-12-31T05:33:37.855Z,0
2022-12-31T05:34:38.016Z,0
2022-12-31T05:35:38.169Z,0
2022-12-31T05:36:38.320Z,0
2022-12-31T05:37:38.471Z,0
2022-12-31T05:38:38.629Z,0
2022-12-31T05:39:38.791Z,0
2022-12-31T05:40:38.945Z,0
2022-12-31T05:41:39.141Z,0
2022-12-31T05:42:39.302Z,0
2022-12-31T05:43:39.468Z,0
2022-12-31T05:44:39.639Z,0
2022-12-31T05:45:39.794Z,0
2022-12-31T05:46:39.951Z,0
2022-12-31T05:47:40.095Z,0
2022-12-31T05:48:40.255Z,0
2022-12-31T05:49:40.419Z,0
2022-12-31T05:50:40.584Z,0
2022-12-31T05:51:40.751Z,0
2022-12-31T05:52:45.670Z,0
2022-12-31T05:53:48.007Z,0
2022-12-31T05:54:48.176Z,0
2022-12-31T05:55:48.340Z,0
2022-12-31T05:56:48.526Z,0
2022-12-31T05:57:48.694Z,0
2022-12-31T05:58:48.848Z,0
2022-12-31T05:59:49.011Z,0
2022-12-31T06:00:49.171Z,0
2022-12-31T06:01:49.339Z,0
2022-12-31T06:02:49.526Z,0
2022-12-31T06:03:49.893Z,0
2022-12-31T06:04:50.371Z,0
2022-12-31T06:05:50.556Z,0
2022-12-31T06:06:50.724Z,0
2022-12-31T06:07:50.892Z,0
2022-12-31T06:08:51.038Z,0
2022-12-31T06:09:51.203Z,0
2022-12-31T06:10:51.355Z,0
2022-12-31T06:11:51.519Z,0
2022-12-31T06:12:51.698Z,0
2022-12-31T06:13:51.854Z,0
2022-12-31T06:14:51.996Z,0
2022-12-31T06:15:52.221Z,0
2022-12-31T06:16:52.468Z,0
2022-12-31T06:17:52.622Z,0
2022-12-31T06:18:52.779Z,0
2022-12-31T06:19:52.949Z,0
2022-12-31T06:20:53.099Z,0
2022-12-31T06:21:53.253Z,0
2022-12-31T06:22:53.457Z,0
2022-12-31T06:23:53.609Z,0
2022-12-31T06:24:53.757Z,0
2022-12-31T06:25:53.924Z,0
2022-12-31T06:26:54.070Z,0
2022-12-31T06:27:54.222Z,0
2022-12-31T06:28:54.398Z,0
2022-12-31T06:29:54.574Z,0
2022-12-31T06:30:54.755Z,0
2022-12-31T06:31:55.036Z,0
2022-12-31T06:32:55.228Z,0
2022-12-31T06:33:55.410Z,0
2022-12-31T06:34:55.587Z,0
2022-12-31T06:35:55.741Z,0
2022-12-31T06:36:55.902Z,0
2022-12-31T06:37:56.069Z,0
2022-12-31T06:38:56.217Z,0
2022-12-31T06:39:56.402Z,0
2022-12-31T06:40:56.556Z,0
2022-12-31T06:41:56.730Z,0
2022-12-31T06:43:00.024Z,0
2022-12-31T06:44:00.796Z,0
2022-12-31T06:45:00.941Z,0
2022-12-31T06:46:01.197Z,0
2022-12-31T06:47:01.481Z,1
2022-12-31T06:48:01.643Z,3
2022-12-31T06:49:01.814Z,4
2022-12-31T06:50:01.968Z,6
2022-12-31T06:51:02.147Z,8
2022-12-31T06:52:02.323Z,10
2022-12-31T06:53:02.487Z,11
2022-12-31T06:54:02.672Z,13
2022-12-31T06:55:02.862Z,15
2022-12-31T06:56:03.021Z,19
2022-12-31T06:57:03.184Z,21
2022-12-31T06:58:03.358Z,24
2022-12-31T06:59:03.531Z,27
2022-12-31T07:00:03.667Z,30
2022-12-31T07:01:03.910Z,30
2022-12-31T07:02:04.399Z,30
2022-12-31T07:03:05.166Z,30
2022-12-31T07:04:05.452Z,30
2022-12-31T07:05:05.606Z,30
2022-12-31T07:06:05.759Z,30
2022-12-31T07:07:05.912Z,33
2022-12-31T07:08:06.077Z,37
2022-12-31T07:09:06.236Z,41
2022-12-31T07:10:06.388Z,41
2022-12-31T07:11:06.566Z,41
2022-12-31T07:12:06.731Z,41
2022-12-31T07:13:06.891Z,46
2022-12-31T07:14:07.109Z,46
2022-12-31T07:15:07.269Z,51
2022-12-31T07:16:07.525Z,51
2022-12-31T07:17:07.834Z,63
2022-12-31T07:18:08.000Z,70
2022-12-31T07:19:08.146Z,77
2022-12-31T07:20:08.301Z,86
2022-12-31T07:21:08.473Z,96.96
2022-12-31T07:22:08.655Z,110
2022-12-31T07:23:08.807Z,130
2022-12-31T07:24:08.966Z,150
2022-12-31T07:25:09.148Z,150
2022-12-31T07:26:09.300Z,169.92
2022-12-31T07:27:09.450Z,189.92
2022-12-31T07:28:09.622Z,209.92
2022-12-31T07:29:09.769Z,240
2022-12-31T07:30:09.919Z,240
2022-12-31T07:31:10.157Z,269.92
2022-12-31T07:32:10.412Z,300
2022-12-31T07:33:10.569Z,329.92
2022-12-31T07:34:10.719Z,369.92
2022-12-31T07:35:10.892Z,369.92
2022-12-31T07:36:11.117Z,409.92
2022-12-31T07:37:11.269Z,459.84
2022-12-31T07:38:11.438Z,459.84
2022-12-31T07:39:11.623Z,509.76
2022-12-31T07:40:11.781Z,509.76
2022-12-31T07:41:11.939Z,569.92
2022-12-31T07:42:12.122Z,629.76
2022-12-31T07:43:12.266Z,699.52
2022-12-31T07:44:12.474Z,699.52
2022-12-31T07:45:12.639Z,769.92
2022-12-31T07:46:12.853Z,849.92
2022-12-31T07:47:13.192Z,1299.84
2022-12-31T07:48:13.350Z,2359.04
2022-12-31T07:49:13.502Z,3737.6
2022-12-31T07:50:13.655Z,4838.4
2022-12-31T07:51:13.843Z,5376
2022-12-31T07:52:14.036Z,5376
2022-12-31T07:53:14.181Z,4298.24
2022-12-31T07:54:14.568Z,3097.6
2022-12-31T07:55:14.744Z,2339.84
2022-12-31T07:56:14.906Z,2080
2022-12-31T07:57:15.066Z,1619.2
2022-12-31T07:58:15.220Z,1619.2
2022-12-31T07:59:18.431Z,1440
2022-12-31T08:00:24.943Z,1440
2022-12-31T08:01:25.174Z,1440
2022-12-31T08:02:25.696Z,1440
2022-12-31T08:03:26.227Z,1600
2022-12-31T08:04:26.412Z,1600
2022-12-31T08:05:26.613Z,1600
2022-12-31T08:06:26.770Z,1600
2022-12-31T08:07:26.928Z,1760
2022-12-31T08:08:27.092Z,1939.2
2022-12-31T08:09:27.243Z,2179.84
2022-12-31T08:10:27.439Z,2798.08
2022-12-31T08:11:27.598Z,2519.04
2022-12-31T08:12:27.744Z,2519.04
2022-12-31T08:13:27.914Z,2519.04
2022-12-31T08:14:28.063Z,2798.08
2022-12-31T08:15:30.450Z,4538.88
2022-12-31T08:16:31.106Z,5637.12
2022-12-31T08:17:31.443Z,5637.12
2022-12-31T08:18:31.623Z,5058.56
2022-12-31T08:19:31.811Z,3998.72
2022-12-31T08:20:32.083Z,3599.36
2022-12-31T08:21:34.940Z,3599.36
2022-12-31T08:22:35.457Z,4618.24
2022-12-31T08:23:35.657Z,6558.72
2022-12-31T08:24:35.836Z,9338.88
2022-12-31T08:25:36.007Z,10598.4
2022-12-31T08:26:36.177Z,11796.48
2022-12-31T08:27:36.351Z,11796.48
2022-12-31T08:28:36.525Z,12994.56
2022-12-31T08:29:36.676Z,12994.56
2022-12-31T08:30:36.826Z,14397.44
2022-12-31T08:31:37.066Z,15994.88
2022-12-31T08:32:37.328Z,15994.88
2022-12-31T08:33:37.487Z,17797.12
2022-12-31T08:34:37.643Z,17797.12
2022-12-31T08:35:37.797Z,17797.12
2022-12-31T08:36:37.963Z,19599.36
2022-12-31T08:37:38.128Z,19599.36
2022-12-31T08:38:38.299Z,19599.36
2022-12-31T08:39:38.450Z,19599.36
2022-12-31T08:40:38.670Z,17592.32
2022-12-31T08:41:42.595Z,17592.32
2022-12-31T08:42:43.595Z,16793.6
2022-12-31T08:43:43.756Z,16793.6
2022-12-31T08:44:43.920Z,16793.6
2022-12-31T08:45:44.083Z,16793.6
2022-12-31T08:46:44.384Z,16793.6
2022-12-31T08:47:44.533Z,15790.08
2022-12-31T08:48:44.708Z,15790.08
2022-12-31T08:49:44.885Z,15790.08
2022-12-31T08:50:45.041Z,17397.76
2022-12-31T08:51:45.187Z,17397.76
2022-12-31T08:52:45.337Z,19200
2022-12-31T08:53:45.519Z,19200
2022-12-31T08:54:45.682Z,19200
2022-12-31T08:55:45.841Z,19200
2022-12-31T08:56:50.275Z,19200
2022-12-31T08:57:50.957Z,17991.68
2022-12-31T08:58:51.107Z,17991.68
2022-12-31T08:59:51.288Z,17991.68
2022-12-31T09:00:51.541Z,17192.96
2022-12-31T09:01:51.972Z,17192.96
2022-12-31T09:02:52.516Z,18995.2
2022-12-31T09:03:52.737Z,18995.2
2022-12-31T09:04:53.061Z,21196.8
2022-12-31T09:05:53.243Z,23388.16
2022-12-31T09:06:53.409Z,23388.16
2022-12-31T09:07:53.557Z,23388.16
2022-12-31T09:08:53.707Z,23388.16
2022-12-31T09:09:53.888Z,23388.16
2022-12-31T09:10:54.041Z,23388.16
2022-12-31T09:11:54.203Z,23388.16
2022-12-31T09:12:54.392Z,23388.16
2022-12-31T09:13:54.542Z,23388.16
2022-12-31T09:14:54.688Z,23388.16
2022-12-31T09:15:54.828Z,24391.68
2022-12-31T09:16:55.032Z,24391.68
2022-12-31T09:17:55.358Z,24391.68
2022-12-31T09:18:55.520Z,24391.68
2022-12-31T09:19:55.702Z,26992.64
2022-12-31T09:20:55.862Z,26992.64
2022-12-31T09:21:56.035Z,26992.64
2022-12-31T09:22:56.218Z,26992.64
2022-12-31T09:23:56.373Z,26992.64
2022-12-31T09:24:56.542Z,26992.64
2022-12-31T09:25:56.778Z,26992.64
2022-12-31T09:26:56.927Z,26992.64
2022-12-31T09:27:57.089Z,26992.64
2022-12-31T09:28:57.237Z,26992.64
2022-12-31T09:29:57.430Z,28385.28
2022-12-31T09:30:57.585Z,28385.28
2022-12-31T09:31:57.762Z,28385.28
2022-12-31T09:33:00.984Z,28385.28
2022-12-31T09:34:01.929Z,28385.28
2022-12-31T09:35:02.108Z,28385.28
2022-12-31T09:36:02.285Z,28385.28
2022-12-31T09:37:02.444Z,28385.28
2022-12-31T09:38:06.517Z,28385.28
2022-12-31T09:39:12.177Z,29982.72
2022-12-31T09:40:12.323Z,29982.72
2022-12-31T09:41:12.488Z,29982.72
2022-12-31T09:42:12.671Z,29982.72
2022-12-31T09:43:12.830Z,29982.72
2022-12-31T09:44:12.967Z,29982.72
2022-12-31T09:45:13.139Z,29982.72
2022-12-31T09:46:13.333Z,29982.72
2022-12-31T09:47:13.670Z,29982.72
2022-12-31T09:48:13.817Z,29982.72
2022-12-31T09:49:13.971Z,28794.88
2022-12-31T09:50:14.122Z,28794.88
2022-12-31T09:51:14.283Z,28794.88
2022-12-31T09:52:14.453Z,28794.88
2022-12-31T09:53:14.616Z,28794.88
2022-12-31T09:54:14.778Z,28794.88
2022-12-31T09:55:14.930Z,28794.88
2022-12-31T09:56:15.091Z,28794.88
2022-12-31T09:57:15.278Z,28794.88
2022-12-31T09:58:15.458Z,25600
2022-12-31T09:59:15.602Z,25600
2022-12-31T10:00:15.779Z,22794.24
2022-12-31T10:01:16.052Z,22794.24
2022-12-31T10:02:16.727Z,22794.24
2022-12-31T10:03:17.578Z,22794.24
2022-12-31T10:04:17.947Z,22794.24
2022-12-31T10:05:18.100Z,22794.24
2022-12-31T10:06:18.256Z,22794.24
2022-12-31T10:07:18.471Z,22794.24
2022-12-31T10:08:18.669Z,22794.24
2022-12-31T10:09:18.881Z,22794.24
2022-12-31T10:10:19.056Z,21585.92
2022-12-31T10:11:19.499Z,21585.92
2022-12-31T10:12:19.661Z,23982.08
2022-12-31T10:13:19.809Z,23982.08
2022-12-31T10:14:19.979Z,21585.92
2022-12-31T10:15:20.131Z,21585.92
2022-12-31T10:16:20.302Z,21585.92
2022-12-31T10:17:20.641Z,21585.92
2022-12-31T10:18:20.795Z,21585.92
2022-12-31T10:19:20.961Z,21585.92
2022-12-31T10:20:21.133Z,19394.56
2022-12-31T10:21:21.286Z,19394.56
2022-12-31T10:22:21.442Z,19394.56
2022-12-31T10:23:21.610Z,21381.12
2022-12-31T10:24:21.773Z,21381.12
2022-12-31T10:25:21.919Z,19200
2022-12-31T10:26:39.951Z,18595.84
2022-12-31T10:27:40.107Z,18595.84
2022-12-31T10:28:40.274Z,18595.84
2022-12-31T10:29:40.430Z,18595.84
2022-12-31T10:30:40.752Z,18595.84
2022-12-31T10:31:41.025Z,18595.84
2022-12-31T10:32:41.192Z,21196.8
2022-12-31T10:33:41.346Z,21196.8
2022-12-31T10:34:41.520Z,21196.8
2022-12-31T10:35:41.675Z,21196.8
2022-12-31T10:36:41.831Z,21196.8
2022-12-31T10:37:41.978Z,21196.8
2022-12-31T10:38:42.125Z,21196.8
2022-12-31T10:39:42.287Z,21196.8
2022-12-31T10:40:42.467Z,21196.8
2022-12-31T10:41:42.626Z,21196.8
2022-12-31T10:42:42.778Z,19998.72
2022-12-31T10:43:42.927Z,19998.72
2022-12-31T10:44:43.085Z,19998.72
2022-12-31T10:45:43.318Z,19998.72
2022-12-31T10:46:43.623Z,22384.64
2022-12-31T10:47:43.912Z,25395.2
2022-12-31T10:48:44.074Z,25395.2
2022-12-31T10:49:44.221Z,25395.2
2022-12-31T10:50:44.376Z,25395.2
2022-12-31T10:51:44.531Z,25395.2
2022-12-31T10:52:44.711Z,25395.2
2022-12-31T10:53:44.892Z,22794.24
2022-12-31T10:54:45.049Z,22794.24
2022-12-31T10:55:45.199Z,22794.24
2022-12-31T10:56:45.374Z,20398.08
2022-12-31T10:57:45.534Z,20398.08
2022-12-31T10:58:45.698Z,20398.08
2022-12-31T10:59:45.904Z,20398.08
2022-12-31T11:00:46.070Z,20398.08
2022-12-31T11:01:46.298Z,20398.08
2022-12-31T11:02:46.960Z,22589.44
2022-12-31T11:03:47.581Z,22589.44
2022-12-31T11:04:47.840Z,24985.6
2022-12-31T11:05:47.987Z,24985.6
2022-12-31T11:06:48.133Z,27791.36
2022-12-31T11:07:48.301Z,27791.36
2022-12-31T11:08:48.453Z,27791.36
2022-12-31T11:09:48.616Z,27791.36
2022-12-31T11:10:48.795Z,27791.36
2022-12-31T11:11:49.004Z,27791.36
2022-12-31T11:12:49.154Z,27791.36
2022-12-31T11:13:49.301Z,27791.36
2022-12-31T11:14:49.446Z,27791.36
2022-12-31T11:15:50.283Z,27791.36
2022-12-31T11:16:50.837Z,29982.72
2022-12-31T11:17:50.990Z,29982.72
2022-12-31T11:18:51.138Z,29982.72
2022-12-31T11:19:51.276Z,29982.72
2022-12-31T11:20:51.461Z,33198.08
2022-12-31T11:21:51.609Z,33198.08
2022-12-31T11:22:51.764Z,33198.08
2022-12-31T11:23:51.970Z,36597.76
2022-12-31T11:24:52.159Z,36597.76
2022-12-31T11:25:52.329Z,36597.76
2022-12-31T11:26:52.498Z,36597.76
2022-12-31T11:27:52.661Z,36597.76
2022-12-31T11:28:52.812Z,32194.56
2022-12-31T11:29:52.997Z,32194.56
2022-12-31T11:30:53.191Z,28794.88
2022-12-31T11:31:53.496Z,28794.88
2022-12-31T11:32:53.681Z,28794.88
2022-12-31T11:33:53.869Z,25784.32
2022-12-31T11:34:54.041Z,25784.32
2022-12-31T11:35:54.192Z,25784.32
2022-12-31T11:36:54.346Z,25784.32
2022-12-31T11:37:54.502Z,25784.32
2022-12-31T11:38:54.715Z,23183.36
2022-12-31T11:39:54.887Z,23183.36
2022-12-31T11:40:55.071Z,23183.36
2022-12-31T11:41:55.219Z,20398.08
2022-12-31T11:42:55.387Z,18196.48
2022-12-31T11:43:55.555Z,18196.48
2022-12-31T11:44:55.717Z,18196.48
2022-12-31T11:45:55.884Z,16199.68
2022-12-31T11:46:56.031Z,16199.68
2022-12-31T11:48:28.932Z,16199.68
2022-12-31T11:49:32.822Z,15994.88
2022-12-31T11:50:32.969Z,15994.88
2022-12-31T11:51:33.154Z,15994.88
2022-12-31T11:52:33.338Z,15994.88
2022-12-31T11:53:33.500Z,15994.88
2022-12-31T11:54:33.660Z,15994.88
2022-12-31T11:55:33.821Z,14397.44
2022-12-31T11:56:33.967Z,14397.44
2022-12-31T11:57:34.128Z,14397.44
2022-12-31T11:58:34.402Z,14397.44
2022-12-31T11:59:34.569Z,14397.44
2022-12-31T12:00:34.721Z,14397.44
2022-12-31T12:01:34.937Z,14397.44
2022-12-31T12:02:35.376Z,14397.44
2022-12-31T12:03:35.736Z,14397.44
2022-12-31T12:04:35.945Z,14397.44
2022-12-31T12:05:36.097Z,13393.92
2022-12-31T12:06:36.262Z,13393.92
2022-12-31T12:07:36.430Z,13393.92
2022-12-31T12:08:36.587Z,13393.92
2022-12-31T12:09:36.757Z,13393.92
2022-12-31T12:10:37.201Z,13393.92
2022-12-31T12:11:37.446Z,13393.92
2022-12-31T12:12:37.606Z,13393.92
2022-12-31T12:13:37.744Z,13393.92
2022-12-31T12:14:37.907Z,13393.92
2022-12-31T12:15:38.086Z,12800
2022-12-31T12:16:38.359Z,12800
2022-12-31T12:17:38.661Z,12800
2022-12-31T12:18:38.807Z,12800
2022-12-31T12:19:38.980Z,12800
2022-12-31T12:20:39.124Z,12800
2022-12-31T12:21:39.281Z,11397.12
2022-12-31T12:22:39.443Z,11397.12
2022-12-31T12:23:39.603Z,11397.12
2022-12-31T12:24:39.787Z,11397.12
2022-12-31T12:25:39.968Z,10199.04
2022-12-31T12:26:40.138Z,10199.04
2022-12-31T12:27:40.277Z,10199.04
2022-12-31T12:28:44.087Z,10199.04
2022-12-31T12:29:44.834Z,9738.24
2022-12-31T12:30:44.987Z,9738.24
2022-12-31T12:31:45.151Z,9738.24
2022-12-31T12:32:45.404Z,9738.24
2022-12-31T12:33:45.553Z,9738.24
2022-12-31T12:34:49.546Z,9738.24
2022-12-31T12:35:50.557Z,9359.36
2022-12-31T12:36:50.717Z,9359.36
2022-12-31T12:37:50.862Z,9359.36
2022-12-31T12:38:51.016Z,9359.36
2022-12-31T12:39:51.169Z,9359.36
2022-12-31T12:40:51.322Z,9359.36
2022-12-31T12:41:51.487Z,9359.36
2022-12-31T12:42:51.646Z,9359.36
2022-12-31T12:43:51.801Z,9359.36
2022-12-31T12:44:51.953Z,9359.36
2022-12-31T12:45:52.627Z,8857.6
2022-12-31T12:46:52.959Z,8857.6
2022-12-31T12:47:53.395Z,8857.6
2022-12-31T12:48:53.558Z,8857.6
2022-12-31T12:49:53.714Z,8857.6
2022-12-31T12:50:53.870Z,8857.6
2022-12-31T12:51:54.014Z,8857.6
2022-12-31T12:52:59.112Z,8857.6
2022-12-31T12:54:00.009Z,8376.32
2022-12-31T12:55:00.189Z,7956.48
2022-12-31T12:56:00.359Z,7956.48
2022-12-31T12:57:00.523Z,7956.48
2022-12-31T12:58:00.697Z,7956.48
2022-12-31T12:59:00.904Z,7956.48
2022-12-31T13:00:01.062Z,7157.76
2022-12-31T13:01:01.310Z,7157.76
2022-12-31T13:02:02.193Z,7157.76
2022-12-31T13:03:02.969Z,7157.76
2022-12-31T13:04:34.553Z,6435.84
2022-12-31T13:05:36.150Z,6338.56
2022-12-31T13:06:36.319Z,6338.56
2022-12-31T13:07:36.475Z,6338.56
2022-12-31T13:08:36.643Z,6338.56
2022-12-31T13:09:36.799Z,6338.56
2022-12-31T13:10:36.965Z,6338.56
2022-12-31T13:11:37.116Z,6338.56
2022-12-31T13:13:05.067Z,6338.56
2022-12-31T13:14:25.524Z,5857.28
2022-12-31T13:15:25.691Z,5857.28
2022-12-31T13:16:25.877Z,5857.28
2022-12-31T13:17:26.162Z,5857.28
2022-12-31T13:18:26.323Z,5857.28
2022-12-31T13:19:26.487Z,5857.28
2022-12-31T13:20:26.636Z,5857.28
2022-12-31T13:21:26.804Z,5857.28
2022-12-31T13:22:26.981Z,5857.28
2022-12-31T13:23:27.217Z,5857.28
2022-12-31T13:24:27.369Z,5877.76
2022-12-31T13:25:27.608Z,5877.76
2022-12-31T13:26:27.784Z,5877.76
2022-12-31T13:27:27.987Z,5877.76
2022-12-31T13:28:28.201Z,5877.76